sensor_id;sensor_type;location;lat;lon;timestamp;temperature;humidity
2054;DHT22;1032;52.542;13.440;2023-04-25T00:02:24;11.80;96.50
2054;DHT22;1032;52.542;13.440;2023-04-25T00:04:51;11.40;96.30
2054;DHT22;1032;52.542;13.440;2023-04-25T00:07:18;11.80;96.60
2054;DHT22;1032;52.542;13.440;2023-04-25T00:09:44;11.50;96.40
2054;DHT22;1032;52.542;13.440;2023-04-25T00:12:12;11.60;96.40
2054;DHT22;1032;52.542;13.440;2023-04-25T00:14:39;11.30;96.20
2054;DHT22;1032;52.542;13.440;2023-04-25T00:17:06;11.50;96.20
2054;DHT22;1032;52.542;13.440;2023-04-25T00:19:32;11.90;96.70
2054;DHT22;1032;52.542;13.440;2023-04-25T00:22:00;11.50;96.00
2054;DHT22;1032;52.542;13.440;2023-04-25T00:24:27;11.80;96.10
2054;DHT22;1032;52.542;13.440;2023-04-25T00:26:53;11.70;95.90
2054;DHT22;1032;52.542;13.440;2023-04-25T00:29:21;11.30;95.80
2054;DHT22;1032;52.542;13.440;2023-04-25T00:31:48;11.90;95.80
2054;DHT22;1032;52.542;13.440;2023-04-25T00:34:14;11.00;95.30
2054;DHT22;1032;52.542;13.440;2023-04-25T00:36:41;11.40;95.50
2054;DHT22;1032;52.542;13.440;2023-04-25T00:39:08;11.50;95.60
2054;DHT22;1032;52.542;13.440;2023-04-25T00:41:35;11.50;95.60
2054;DHT22;1032;52.542;13.440;2023-04-25T00:44:03;11.80;95.70
2054;DHT22;1032;52.542;13.440;2023-04-25T00:46:33;11.40;95.40
2054;DHT22;1032;52.542;13.440;2023-04-25T00:49:01;11.20;95.20
2054;DHT22;1032;52.542;13.440;2023-04-25T00:51:28;11.80;95.60
2054;DHT22;1032;52.542;13.440;2023-04-25T00:53:55;11.50;95.60
2054;DHT22;1032;52.542;13.440;2023-04-25T00:56:22;11.00;95.20
2054;DHT22;1032;52.542;13.440;2023-04-25T00:58:50;11.20;95.40
2054;DHT22;1032;52.542;13.440;2023-04-25T01:01:18;11.30;95.40
2054;DHT22;1032;52.542;13.440;2023-04-25T01:03:46;11.30;95.50
2054;DHT22;1032;52.542;13.440;2023-04-25T01:06:16;11.60;95.60
2054;DHT22;1032;52.542;13.440;2023-04-25T01:08:43;11.40;95.60
2054;DHT22;1032;52.542;13.440;2023-04-25T01:11:09;11.50;95.70
2054;DHT22;1032;52.542;13.440;2023-04-25T01:13:36;10.80;95.40
2054;DHT22;1032;52.542;13.440;2023-04-25T01:16:04;11.50;95.70
2054;DHT22;1032;52.542;13.440;2023-04-25T01:18:31;11.40;95.70
2054;DHT22;1032;52.542;13.440;2023-04-25T01:21:06;11.70;95.80
2054;DHT22;1032;52.542;13.440;2023-04-25T01:23:33;11.20;95.70
2054;DHT22;1032;52.542;13.440;2023-04-25T01:26:00;11.30;95.70
2054;DHT22;1032;52.542;13.440;2023-04-25T01:28:27;11.40;95.80
2054;DHT22;1032;52.542;13.440;2023-04-25T01:30:54;11.40;95.80
2054;DHT22;1032;52.542;13.440;2023-04-25T01:33:22;11.40;95.60
2054;DHT22;1032;52.542;13.440;2023-04-25T01:35:49;11.80;95.80
2054;DHT22;1032;52.542;13.440;2023-04-25T01:38:20;11.70;95.90
2054;DHT22;1032;52.542;13.440;2023-04-25T01:40:49;11.60;95.70
2054;DHT22;1032;52.542;13.440;2023-04-25T01:43:18;11.30;95.50
2054;DHT22;1032;52.542;13.440;2023-04-25T01:45:45;11.70;95.80
2054;DHT22;1032;52.542;13.440;2023-04-25T01:48:13;11.70;95.80
2054;DHT22;1032;52.542;13.440;2023-04-25T01:50:43;11.30;95.50
2054;DHT22;1032;52.542;13.440;2023-04-25T01:53:13;11.30;95.50
2054;DHT22;1032;52.542;13.440;2023-04-25T01:55:42;12.00;95.90
2054;DHT22;1032;52.542;13.440;2023-04-25T01:58:12;11.90;95.80
2054;DHT22;1032;52.542;13.440;2023-04-25T02:00:57;11.10;95.40
2054;DHT22;1032;52.542;13.440;2023-04-25T02:03:29;11.80;95.70
2054;DHT22;1032;52.542;13.440;2023-04-25T02:05:56;11.80;95.80
2054;DHT22;1032;52.542;13.440;2023-04-25T02:08:24;11.50;95.60
2054;DHT22;1032;52.542;13.440;2023-04-25T02:10:55;11.30;95.50
2054;DHT22;1032;52.542;13.440;2023-04-25T02:13:22;11.70;95.70
2054;DHT22;1032;52.542;13.440;2023-04-25T02:15:57;11.50;95.60
2054;DHT22;1032;52.542;13.440;2023-04-25T02:18:24;11.50;95.80
2054;DHT22;1032;52.542;13.440;2023-04-25T02:20:51;11.50;95.60
2054;DHT22;1032;52.542;13.440;2023-04-25T02:23:19;11.70;95.80
2054;DHT22;1032;52.542;13.440;2023-04-25T02:25:46;11.80;95.90
2054;DHT22;1032;52.542;13.440;2023-04-25T02:28:14;11.90;96.00
2054;DHT22;1032;52.542;13.440;2023-04-25T02:30:41;10.90;95.50
2054;DHT22;1032;52.542;13.440;2023-04-25T02:33:08;11.50;95.90
2054;DHT22;1032;52.542;13.440;2023-04-25T02:35:35;11.60;96.10
2054;DHT22;1032;52.542;13.440;2023-04-25T02:38:02;11.50;96.00
2054;DHT22;1032;52.542;13.440;2023-04-25T02:40:28;11.40;96.00
2054;DHT22;1032;52.542;13.440;2023-04-25T02:42:56;11.90;96.20
2054;DHT22;1032;52.542;13.440;2023-04-25T02:45:26;11.00;95.60
2054;DHT22;1032;52.542;13.440;2023-04-25T02:47:52;11.40;95.90
2054;DHT22;1032;52.542;13.440;2023-04-25T02:50:19;11.50;95.90
2054;DHT22;1032;52.542;13.440;2023-04-25T02:52:46;11.40;96.10
2054;DHT22;1032;52.542;13.440;2023-04-25T02:55:20;11.40;96.10
2054;DHT22;1032;52.542;13.440;2023-04-25T02:57:47;11.30;95.90
2054;DHT22;1032;52.542;13.440;2023-04-25T03:00:23;11.40;96.00
2054;DHT22;1032;52.542;13.440;2023-04-25T03:02:52;11.50;96.20
2054;DHT22;1032;52.542;13.440;2023-04-25T03:05:19;11.30;96.10
2054;DHT22;1032;52.542;13.440;2023-04-25T03:07:45;11.50;96.20
2054;DHT22;1032;52.542;13.440;2023-04-25T03:10:12;11.40;96.20
2054;DHT22;1032;52.542;13.440;2023-04-25T03:12:39;11.20;96.10
2054;DHT22;1032;52.542;13.440;2023-04-25T03:15:06;11.80;96.50
2054;DHT22;1032;52.542;13.440;2023-04-25T03:17:33;11.30;96.10
2054;DHT22;1032;52.542;13.440;2023-04-25T03:20:01;11.60;96.40
2054;DHT22;1032;52.542;13.440;2023-04-25T03:22:30;11.70;96.30
2054;DHT22;1032;52.542;13.440;2023-04-25T03:24:57;11.20;96.30
2054;DHT22;1032;52.542;13.440;2023-04-25T03:27:23;10.80;95.90
2054;DHT22;1032;52.542;13.440;2023-04-25T03:29:50;11.50;96.40
2054;DHT22;1032;52.542;13.440;2023-04-25T03:32:17;11.30;96.40
2054;DHT22;1032;52.542;13.440;2023-04-25T03:34:45;11.50;96.60
2054;DHT22;1032;52.542;13.440;2023-04-25T03:37:13;11.20;96.30
2054;DHT22;1032;52.542;13.440;2023-04-25T03:39:40;11.40;96.60
2054;DHT22;1032;52.542;13.440;2023-04-25T03:42:06;11.30;96.40
2054;DHT22;1032;52.542;13.440;2023-04-25T03:44:33;11.40;96.60
2054;DHT22;1032;52.542;13.440;2023-04-25T03:47:00;11.60;96.70
2054;DHT22;1032;52.542;13.440;2023-04-25T03:49:27;11.00;96.30
2054;DHT22;1032;52.542;13.440;2023-04-25T03:51:59;11.20;96.60
2054;DHT22;1032;52.542;13.440;2023-04-25T03:54:30;11.40;96.60
2054;DHT22;1032;52.542;13.440;2023-04-25T03:57:09;11.60;96.80
2054;DHT22;1032;52.542;13.440;2023-04-25T03:59:38;11.80;96.90
2054;DHT22;1032;52.542;13.440;2023-04-25T04:02:07;11.50;96.70
2054;DHT22;1032;52.542;13.440;2023-04-25T04:04:35;11.20;96.60
2054;DHT22;1032;52.542;13.440;2023-04-25T04:07:01;11.40;96.90
2054;DHT22;1032;52.542;13.440;2023-04-25T04:09:34;11.70;97.10
2054;DHT22;1032;52.542;13.440;2023-04-25T04:12:05;11.60;97.10
2054;DHT22;1032;52.542;13.440;2023-04-25T04:14:32;11.20;96.90
2054;DHT22;1032;52.542;13.440;2023-04-25T04:16:59;11.20;96.90
2054;DHT22;1032;52.542;13.440;2023-04-25T04:19:27;11.40;96.90
2054;DHT22;1032;52.542;13.440;2023-04-25T04:22:03;11.40;96.80
2054;DHT22;1032;52.542;13.440;2023-04-25T04:24:30;11.10;96.90
2054;DHT22;1032;52.542;13.440;2023-04-25T04:27:02;11.80;97.30
2054;DHT22;1032;52.542;13.440;2023-04-25T04:29:34;11.20;96.90
2054;DHT22;1032;52.542;13.440;2023-04-25T04:32:15;11.00;96.80
2054;DHT22;1032;52.542;13.440;2023-04-25T04:34:42;10.80;96.90
2054;DHT22;1032;52.542;13.440;2023-04-25T04:37:13;11.10;97.10
2054;DHT22;1032;52.542;13.440;2023-04-25T04:39:41;11.40;97.10
2054;DHT22;1032;52.542;13.440;2023-04-25T04:42:17;11.00;97.10
2054;DHT22;1032;52.542;13.440;2023-04-25T04:45:13;11.20;97.20
2054;DHT22;1032;52.542;13.440;2023-04-25T04:47:56;11.20;97.20
2054;DHT22;1032;52.542;13.440;2023-04-25T04:50:34;11.20;97.10
2054;DHT22;1032;52.542;13.440;2023-04-25T04:53:27;11.30;97.30
2054;DHT22;1032;52.542;13.440;2023-04-25T04:56:17;11.30;97.40
2054;DHT22;1032;52.542;13.440;2023-04-25T04:59:13;11.40;97.40
2054;DHT22;1032;52.542;13.440;2023-04-25T05:01:47;11.20;97.20
2054;DHT22;1032;52.542;13.440;2023-04-25T05:04:21;11.40;97.50
2054;DHT22;1032;52.542;13.440;2023-04-25T05:07:06;11.30;97.20
2054;DHT22;1032;52.542;13.440;2023-04-25T05:10:11;11.70;97.50
2054;DHT22;1032;52.542;13.440;2023-04-25T05:13:01;11.30;97.00
2054;DHT22;1032;52.542;13.440;2023-04-25T05:15:53;11.40;97.10
2054;DHT22;1032;52.542;13.440;2023-04-25T05:18:33;11.30;97.20
2054;DHT22;1032;52.542;13.440;2023-04-25T05:21:20;11.30;97.10
2054;DHT22;1032;52.542;13.440;2023-04-25T05:24:03;12.00;97.50
2054;DHT22;1032;52.542;13.440;2023-04-25T05:27:05;11.50;97.20
2054;DHT22;1032;52.542;13.440;2023-04-25T05:29:49;11.40;97.20
2054;DHT22;1032;52.542;13.440;2023-04-25T05:32:26;11.30;97.20
2054;DHT22;1032;52.542;13.440;2023-04-25T05:34:53;11.40;97.20
2054;DHT22;1032;52.542;13.440;2023-04-25T05:37:26;11.40;97.20
2054;DHT22;1032;52.542;13.440;2023-04-25T05:40:04;11.50;97.40
2054;DHT22;1032;52.542;13.440;2023-04-25T05:43:04;11.40;97.20
2054;DHT22;1032;52.542;13.440;2023-04-25T05:45:46;11.40;97.30
2054;DHT22;1032;52.542;13.440;2023-04-25T05:48:45;11.50;97.20
2054;DHT22;1032;52.542;13.440;2023-04-25T05:51:36;11.50;97.40
2054;DHT22;1032;52.542;13.440;2023-04-25T05:54:17;12.00;97.70
2054;DHT22;1032;52.542;13.440;2023-04-25T05:56:44;11.40;97.50
2054;DHT22;1032;52.542;13.440;2023-04-25T05:59:11;11.50;97.50
2054;DHT22;1032;52.542;13.440;2023-04-25T06:01:38;11.50;97.50
2054;DHT22;1032;52.542;13.440;2023-04-25T06:04:06;11.50;97.50
2054;DHT22;1032;52.542;13.440;2023-04-25T06:06:33;11.50;97.50
2054;DHT22;1032;52.542;13.440;2023-04-25T06:09:00;11.60;97.70
2054;DHT22;1032;52.542;13.440;2023-04-25T06:11:27;11.60;97.70
2054;DHT22;1032;52.542;13.440;2023-04-25T06:13:53;11.20;97.40
2054;DHT22;1032;52.542;13.440;2023-04-25T06:16:20;11.50;97.50
2054;DHT22;1032;52.542;13.440;2023-04-25T06:18:46;11.70;97.80
2054;DHT22;1032;52.542;13.440;2023-04-25T06:21:15;12.10;97.90
2054;DHT22;1032;52.542;13.440;2023-04-25T06:23:42;11.70;97.70
2054;DHT22;1032;52.542;13.440;2023-04-25T06:26:11;12.00;97.90
2054;DHT22;1032;52.542;13.440;2023-04-25T06:28:41;11.80;97.80
2054;DHT22;1032;52.542;13.440;2023-04-25T06:31:08;11.70;97.70
2054;DHT22;1032;52.542;13.440;2023-04-25T06:33:35;12.00;98.00
2054;DHT22;1032;52.542;13.440;2023-04-25T06:36:03;12.20;98.10
2054;DHT22;1032;52.542;13.440;2023-04-25T06:38:32;12.10;98.00
2054;DHT22;1032;52.542;13.440;2023-04-25T06:41:00;12.30;98.10
2054;DHT22;1032;52.542;13.440;2023-04-25T06:43:30;11.70;97.80
2054;DHT22;1032;52.542;13.440;2023-04-25T06:46:23;11.80;98.00
2054;DHT22;1032;52.542;13.440;2023-04-25T06:48:50;12.00;98.00
2054;DHT22;1032;52.542;13.440;2023-04-25T06:51:18;12.00;98.00
2054;DHT22;1032;52.542;13.440;2023-04-25T06:53:46;11.70;97.90
2054;DHT22;1032;52.542;13.440;2023-04-25T06:56:24;12.00;98.10
2054;DHT22;1032;52.542;13.440;2023-04-25T06:58:59;11.80;98.00
2054;DHT22;1032;52.542;13.440;2023-04-25T07:01:32;11.90;98.20
2054;DHT22;1032;52.542;13.440;2023-04-25T07:04:01;12.10;98.40
2054;DHT22;1032;52.542;13.440;2023-04-25T07:06:29;11.70;98.40
2054;DHT22;1032;52.542;13.440;2023-04-25T07:08:57;12.20;98.70
2054;DHT22;1032;52.542;13.440;2023-04-25T07:11:24;12.40;98.80
2054;DHT22;1032;52.542;13.440;2023-04-25T07:13:51;12.20;98.80
2054;DHT22;1032;52.542;13.440;2023-04-25T07:16:17;12.20;98.70
2054;DHT22;1032;52.542;13.440;2023-04-25T07:18:45;12.30;98.80
2054;DHT22;1032;52.542;13.440;2023-04-25T07:21:13;11.30;98.40
2054;DHT22;1032;52.542;13.440;2023-04-25T07:23:41;12.20;98.80
2054;DHT22;1032;52.542;13.440;2023-04-25T07:26:14;11.90;98.60
2054;DHT22;1032;52.542;13.440;2023-04-25T07:29:01;11.90;98.70
2054;DHT22;1032;52.542;13.440;2023-04-25T07:31:27;11.60;98.70
2054;DHT22;1032;52.542;13.440;2023-04-25T07:33:54;11.50;98.70
2054;DHT22;1032;52.542;13.440;2023-04-25T07:36:21;12.30;99.00
2054;DHT22;1032;52.542;13.440;2023-04-25T07:38:47;12.40;98.80
2054;DHT22;1032;52.542;13.440;2023-04-25T07:41:15;12.50;98.50
2054;DHT22;1032;52.542;13.440;2023-04-25T07:43:42;12.10;98.00
2054;DHT22;1032;52.542;13.440;2023-04-25T07:46:08;11.60;97.60
2054;DHT22;1032;52.542;13.440;2023-04-25T07:48:36;11.90;97.60
2054;DHT22;1032;52.542;13.440;2023-04-25T07:51:03;12.60;97.80
2054;DHT22;1032;52.542;13.440;2023-04-25T07:53:30;12.20;97.30
2054;DHT22;1032;52.542;13.440;2023-04-25T07:56:02;12.30;96.90
2054;DHT22;1032;52.542;13.440;2023-04-25T07:58:33;12.20;96.90
2054;DHT22;1032;52.542;13.440;2023-04-25T08:01:03;12.10;96.80
2054;DHT22;1032;52.542;13.440;2023-04-25T08:03:52;12.20;96.70
2054;DHT22;1032;52.542;13.440;2023-04-25T08:06:24;11.50;96.40
2054;DHT22;1032;52.542;13.440;2023-04-25T08:09:09;12.20;96.80
2054;DHT22;1032;52.542;13.440;2023-04-25T08:11:38;11.90;96.90
2054;DHT22;1032;52.542;13.440;2023-04-25T08:14:09;12.20;96.60
2054;DHT22;1032;52.542;13.440;2023-04-25T08:16:37;11.80;96.10
2054;DHT22;1032;52.542;13.440;2023-04-25T08:19:04;12.70;96.10
2054;DHT22;1032;52.542;13.440;2023-04-25T08:21:31;12.30;95.50
2054;DHT22;1032;52.542;13.440;2023-04-25T08:24:01;12.60;95.10
2054;DHT22;1032;52.542;13.440;2023-04-25T08:26:31;12.80;95.00
2054;DHT22;1032;52.542;13.440;2023-04-25T08:28:58;12.20;94.50
2054;DHT22;1032;52.542;13.440;2023-04-25T08:31:27;12.00;94.50
2054;DHT22;1032;52.542;13.440;2023-04-25T08:33:57;12.60;95.00
2054;DHT22;1032;52.542;13.440;2023-04-25T08:36:38;12.60;94.90
2054;DHT22;1032;52.542;13.440;2023-04-25T08:39:13;13.10;94.90
2054;DHT22;1032;52.542;13.440;2023-04-25T08:41:47;12.90;94.60
2054;DHT22;1032;52.542;13.440;2023-04-25T08:44:14;12.60;94.00
2054;DHT22;1032;52.542;13.440;2023-04-25T08:46:46;12.90;93.00
2054;DHT22;1032;52.542;13.440;2023-04-25T08:49:24;12.80;92.60
2054;DHT22;1032;52.542;13.440;2023-04-25T08:51:52;12.70;92.50
2054;DHT22;1032;52.542;13.440;2023-04-25T08:54:23;12.80;92.20
2054;DHT22;1032;52.542;13.440;2023-04-25T08:56:54;13.10;91.90
2054;DHT22;1032;52.542;13.440;2023-04-25T08:59:21;12.90;91.80
2054;DHT22;1032;52.542;13.440;2023-04-25T09:01:50;13.20;91.80
2054;DHT22;1032;52.542;13.440;2023-04-25T09:04:21;13.20;91.20
2054;DHT22;1032;52.542;13.440;2023-04-25T09:06:48;13.40;90.50
2054;DHT22;1032;52.542;13.440;2023-04-25T09:09:15;13.50;90.10
2054;DHT22;1032;52.542;13.440;2023-04-25T09:11:43;14.10;89.10
2054;DHT22;1032;52.542;13.440;2023-04-25T09:14:13;13.50;86.30
2054;DHT22;1032;52.542;13.440;2023-04-25T09:17:01;13.80;86.50
2054;DHT22;1032;52.542;13.440;2023-04-25T09:19:37;13.70;85.90
2054;DHT22;1032;52.542;13.440;2023-04-25T09:22:08;13.80;85.80
2054;DHT22;1032;52.542;13.440;2023-04-25T09:24:37;13.40;84.30
2054;DHT22;1032;52.542;13.440;2023-04-25T09:27:05;13.80;82.80
2054;DHT22;1032;52.542;13.440;2023-04-25T09:29:33;13.90;81.70
2054;DHT22;1032;52.542;13.440;2023-04-25T09:32:16;14.10;80.20
2054;DHT22;1032;52.542;13.440;2023-04-25T09:34:46;14.40;78.10
2054;DHT22;1032;52.542;13.440;2023-04-25T09:37:19;14.60;79.00
2054;DHT22;1032;52.542;13.440;2023-04-25T09:40:06;13.80;78.00
2054;DHT22;1032;52.542;13.440;2023-04-25T09:42:42;14.20;77.00
2054;DHT22;1032;52.542;13.440;2023-04-25T09:45:12;14.00;77.20
2054;DHT22;1032;52.542;13.440;2023-04-25T09:47:42;14.60;76.70
2054;DHT22;1032;52.542;13.440;2023-04-25T09:50:14;14.00;74.90
2054;DHT22;1032;52.542;13.440;2023-04-25T09:52:43;14.10;72.50
2054;DHT22;1032;52.542;13.440;2023-04-25T09:55:16;14.00;71.30
2054;DHT22;1032;52.542;13.440;2023-04-25T09:57:46;13.80;71.40
2054;DHT22;1032;52.542;13.440;2023-04-25T10:00:17;14.10;71.30
2054;DHT22;1032;52.542;13.440;2023-04-25T10:02:47;13.60;69.80
2054;DHT22;1032;52.542;13.440;2023-04-25T10:05:41;13.90;69.50
2054;DHT22;1032;52.542;13.440;2023-04-25T10:08:11;14.00;70.40
2054;DHT22;1032;52.542;13.440;2023-04-25T10:10:40;14.00;69.60
2054;DHT22;1032;52.542;13.440;2023-04-25T10:13:07;14.30;71.00
2054;DHT22;1032;52.542;13.440;2023-04-25T10:15:35;14.20;69.90
2054;DHT22;1032;52.542;13.440;2023-04-25T10:18:03;14.20;68.70
2054;DHT22;1032;52.542;13.440;2023-04-25T10:20:30;13.80;68.00
2054;DHT22;1032;52.542;13.440;2023-04-25T10:23:03;14.40;68.40
2054;DHT22;1032;52.542;13.440;2023-04-25T10:25:33;14.80;67.70
2054;DHT22;1032;52.542;13.440;2023-04-25T10:28:00;14.90;67.30
2054;DHT22;1032;52.542;13.440;2023-04-25T10:30:29;14.90;67.00
2054;DHT22;1032;52.542;13.440;2023-04-25T10:32:56;14.80;66.50
2054;DHT22;1032;52.542;13.440;2023-04-25T10:35:28;14.10;64.70
2054;DHT22;1032;52.542;13.440;2023-04-25T10:38:00;14.50;64.80
2054;DHT22;1032;52.542;13.440;2023-04-25T10:40:28;13.70;64.00
2054;DHT22;1032;52.542;13.440;2023-04-25T10:42:55;14.20;64.20
2054;DHT22;1032;52.542;13.440;2023-04-25T10:45:53;14.20;64.40
2054;DHT22;1032;52.542;13.440;2023-04-25T10:48:25;13.90;63.50
2054;DHT22;1032;52.542;13.440;2023-04-25T10:51:07;13.50;63.50
2054;DHT22;1032;52.542;13.440;2023-04-25T10:53:33;14.10;64.50
2054;DHT22;1032;52.542;13.440;2023-04-25T10:56:00;13.70;63.80
2054;DHT22;1032;52.542;13.440;2023-04-25T10:58:29;14.60;64.50
2054;DHT22;1032;52.542;13.440;2023-04-25T11:00:57;14.60;63.40
2054;DHT22;1032;52.542;13.440;2023-04-25T11:03:24;14.60;62.70
2054;DHT22;1032;52.542;13.440;2023-04-25T11:05:51;15.00;62.10
2054;DHT22;1032;52.542;13.440;2023-04-25T11:08:26;15.10;61.80
2054;DHT22;1032;52.542;13.440;2023-04-25T11:10:59;15.00;61.00
2054;DHT22;1032;52.542;13.440;2023-04-25T11:13:29;15.10;61.70
2054;DHT22;1032;52.542;13.440;2023-04-25T11:15:55;14.60;59.80
2054;DHT22;1032;52.542;13.440;2023-04-25T11:18:27;14.60;60.20
2054;DHT22;1032;52.542;13.440;2023-04-25T11:20:53;14.80;60.20
2054;DHT22;1032;52.542;13.440;2023-04-25T11:23:21;14.00;59.40
2054;DHT22;1032;52.542;13.440;2023-04-25T11:25:49;13.70;60.70
2054;DHT22;1032;52.542;13.440;2023-04-25T11:28:20;13.60;61.80
2054;DHT22;1032;52.542;13.440;2023-04-25T11:30:48;13.80;62.80
2054;DHT22;1032;52.542;13.440;2023-04-25T11:33:15;13.30;62.10
2054;DHT22;1032;52.542;13.440;2023-04-25T11:35:43;13.70;62.60
2054;DHT22;1032;52.542;13.440;2023-04-25T11:38:10;13.70;61.80
2054;DHT22;1032;52.542;13.440;2023-04-25T11:40:37;13.80;61.10
2054;DHT22;1032;52.542;13.440;2023-04-25T11:43:03;13.90;61.20
2054;DHT22;1032;52.542;13.440;2023-04-25T11:45:30;14.20;60.50
2054;DHT22;1032;52.542;13.440;2023-04-25T11:47:57;13.70;58.80
2054;DHT22;1032;52.542;13.440;2023-04-25T11:50:23;14.20;59.00
2054;DHT22;1032;52.542;13.440;2023-04-25T11:52:56;14.00;58.20
2054;DHT22;1032;52.542;13.440;2023-04-25T11:55:23;14.20;58.60
2054;DHT22;1032;52.542;13.440;2023-04-25T11:57:50;14.10;58.50
2054;DHT22;1032;52.542;13.440;2023-04-25T12:00:19;14.30;58.80
2054;DHT22;1032;52.542;13.440;2023-04-25T12:02:47;14.00;57.90
2054;DHT22;1032;52.542;13.440;2023-04-25T12:05:15;14.40;58.20
2054;DHT22;1032;52.542;13.440;2023-04-25T12:07:42;14.40;58.50
2054;DHT22;1032;52.542;13.440;2023-04-25T12:10:11;14.10;58.70
2054;DHT22;1032;52.542;13.440;2023-04-25T12:12:41;14.10;58.70
2054;DHT22;1032;52.542;13.440;2023-04-25T12:15:09;13.80;58.50
2054;DHT22;1032;52.542;13.440;2023-04-25T12:17:36;14.50;59.20
2054;DHT22;1032;52.542;13.440;2023-04-25T12:20:07;13.90;58.70
2054;DHT22;1032;52.542;13.440;2023-04-25T12:22:34;13.90;58.20
2054;DHT22;1032;52.542;13.440;2023-04-25T12:25:01;13.90;58.90
2054;DHT22;1032;52.542;13.440;2023-04-25T12:27:31;14.00;59.10
2054;DHT22;1032;52.542;13.440;2023-04-25T12:29:58;13.70;58.20
2054;DHT22;1032;52.542;13.440;2023-04-25T12:32:24;14.20;58.10
2054;DHT22;1032;52.542;13.440;2023-04-25T12:34:51;14.20;57.80
2054;DHT22;1032;52.542;13.440;2023-04-25T12:37:18;14.40;58.30
2054;DHT22;1032;52.542;13.440;2023-04-25T12:39:45;14.10;57.90
2054;DHT22;1032;52.542;13.440;2023-04-25T12:42:12;14.70;57.50
2054;DHT22;1032;52.542;13.440;2023-04-25T12:44:40;14.30;56.70
2054;DHT22;1032;52.542;13.440;2023-04-25T12:47:07;14.50;57.00
2054;DHT22;1032;52.542;13.440;2023-04-25T12:49:33;14.30;56.50
2054;DHT22;1032;52.542;13.440;2023-04-25T12:52:00;14.80;57.00
2054;DHT22;1032;52.542;13.440;2023-04-25T12:54:27;15.00;56.90
2054;DHT22;1032;52.542;13.440;2023-04-25T12:56:53;14.60;56.60
2054;DHT22;1032;52.542;13.440;2023-04-25T12:59:20;15.00;56.90
2054;DHT22;1032;52.542;13.440;2023-04-25T13:01:48;15.00;56.30
2054;DHT22;1032;52.542;13.440;2023-04-25T13:04:15;14.80;56.10
2054;DHT22;1032;52.542;13.440;2023-04-25T13:06:42;14.60;55.60
2054;DHT22;1032;52.542;13.440;2023-04-25T13:09:08;15.20;55.50
2054;DHT22;1032;52.542;13.440;2023-04-25T13:11:37;15.10;55.00
2054;DHT22;1032;52.542;13.440;2023-04-25T13:14:04;14.60;54.60
2054;DHT22;1032;52.542;13.440;2023-04-25T13:16:32;14.90;54.70
2054;DHT22;1032;52.542;13.440;2023-04-25T13:18:59;14.70;54.50
2054;DHT22;1032;52.542;13.440;2023-04-25T13:21:26;14.30;54.10
2054;DHT22;1032;52.542;13.440;2023-04-25T13:23:53;15.00;54.60
2054;DHT22;1032;52.542;13.440;2023-04-25T13:26:20;15.40;54.60
2054;DHT22;1032;52.542;13.440;2023-04-25T13:28:46;15.10;54.30
2054;DHT22;1032;52.542;13.440;2023-04-25T13:31:13;14.80;53.80
2054;DHT22;1032;52.542;13.440;2023-04-25T13:33:40;15.10;54.40
2054;DHT22;1032;52.542;13.440;2023-04-25T13:36:08;14.60;54.00
2054;DHT22;1032;52.542;13.440;2023-04-25T13:38:35;14.40;54.50
2054;DHT22;1032;52.542;13.440;2023-04-25T13:41:02;14.60;55.20
2054;DHT22;1032;52.542;13.440;2023-04-25T13:43:28;14.30;55.50
2054;DHT22;1032;52.542;13.440;2023-04-25T13:45:55;14.70;55.70
2054;DHT22;1032;52.542;13.440;2023-04-25T13:48:22;14.30;56.30
2054;DHT22;1032;52.542;13.440;2023-04-25T13:50:48;14.10;56.90
2054;DHT22;1032;52.542;13.440;2023-04-25T13:53:17;14.00;57.10
2054;DHT22;1032;52.542;13.440;2023-04-25T13:55:44;14.00;57.60
2054;DHT22;1032;52.542;13.440;2023-04-25T13:58:11;14.30;57.90
2054;DHT22;1032;52.542;13.440;2023-04-25T14:00:38;14.40;58.00
2054;DHT22;1032;52.542;13.440;2023-04-25T14:03:05;14.30;57.90
2054;DHT22;1032;52.542;13.440;2023-04-25T14:05:34;14.70;57.60
2054;DHT22;1032;52.542;13.440;2023-04-25T14:08:07;14.40;57.20
2054;DHT22;1032;52.542;13.440;2023-04-25T14:10:35;14.30;57.20
2054;DHT22;1032;52.542;13.440;2023-04-25T14:13:03;14.20;57.10
2054;DHT22;1032;52.542;13.440;2023-04-25T14:15:30;14.30;57.20
2054;DHT22;1032;52.542;13.440;2023-04-25T14:17:57;13.80;57.00
2054;DHT22;1032;52.542;13.440;2023-04-25T14:20:24;14.30;57.80
2054;DHT22;1032;52.542;13.440;2023-04-25T14:22:50;14.00;57.80
2054;DHT22;1032;52.542;13.440;2023-04-25T14:25:19;14.10;57.90
2054;DHT22;1032;52.542;13.440;2023-04-25T14:27:47;14.30;58.00
2054;DHT22;1032;52.542;13.440;2023-04-25T14:30:15;14.70;57.10
2054;DHT22;1032;52.542;13.440;2023-04-25T14:32:42;14.60;56.50
2054;DHT22;1032;52.542;13.440;2023-04-25T14:35:10;15.10;55.10
2054;DHT22;1032;52.542;13.440;2023-04-25T14:37:37;14.60;54.90
2054;DHT22;1032;52.542;13.440;2023-04-25T14:40:04;15.00;55.30
2054;DHT22;1032;52.542;13.440;2023-04-25T14:42:32;15.10;55.50
2054;DHT22;1032;52.542;13.440;2023-04-25T14:45:01;15.00;55.50
2054;DHT22;1032;52.542;13.440;2023-04-25T14:47:27;15.20;55.80
2054;DHT22;1032;52.542;13.440;2023-04-25T14:49:54;14.80;56.00
2054;DHT22;1032;52.542;13.440;2023-04-25T14:52:21;14.90;56.40
2054;DHT22;1032;52.542;13.440;2023-04-25T14:54:47;14.50;56.60
2054;DHT22;1032;52.542;13.440;2023-04-25T14:57:14;14.40;57.10
2054;DHT22;1032;52.542;13.440;2023-04-25T14:59:42;14.10;57.50
2054;DHT22;1032;52.542;13.440;2023-04-25T15:02:10;14.00;57.90
2054;DHT22;1032;52.542;13.440;2023-04-25T15:04:37;14.10;58.60
2054;DHT22;1032;52.542;13.440;2023-04-25T15:07:03;13.90;59.00
2054;DHT22;1032;52.542;13.440;2023-04-25T15:09:30;14.00;59.80
2054;DHT22;1032;52.542;13.440;2023-04-25T15:11:57;13.10;60.10
2054;DHT22;1032;52.542;13.440;2023-04-25T15:14:24;13.00;60.50
2054;DHT22;1032;52.542;13.440;2023-04-25T15:16:51;13.40;61.50
2054;DHT22;1032;52.542;13.440;2023-04-25T15:19:19;13.30;61.80
2054;DHT22;1032;52.542;13.440;2023-04-25T15:21:46;12.90;61.40
2054;DHT22;1032;52.542;13.440;2023-04-25T15:24:13;13.30;61.80
2054;DHT22;1032;52.542;13.440;2023-04-25T15:26:40;13.60;61.90
2054;DHT22;1032;52.542;13.440;2023-04-25T15:29:07;13.70;61.80
2054;DHT22;1032;52.542;13.440;2023-04-25T15:31:33;13.50;60.70
2054;DHT22;1032;52.542;13.440;2023-04-25T15:34:01;13.40;60.10
2054;DHT22;1032;52.542;13.440;2023-04-25T15:36:29;13.80;59.70
2054;DHT22;1032;52.542;13.440;2023-04-25T15:38:55;13.60;59.40
2054;DHT22;1032;52.542;13.440;2023-04-25T15:41:23;13.80;59.60
2054;DHT22;1032;52.542;13.440;2023-04-25T15:43:50;13.40;59.20
2054;DHT22;1032;52.542;13.440;2023-04-25T15:46:18;13.90;59.60
2054;DHT22;1032;52.542;13.440;2023-04-25T15:48:45;13.50;59.30
2054;DHT22;1032;52.542;13.440;2023-04-25T15:51:12;13.20;58.80
2054;DHT22;1032;52.542;13.440;2023-04-25T15:53:40;13.40;59.10
2054;DHT22;1032;52.542;13.440;2023-04-25T15:56:06;12.80;58.90
2054;DHT22;1032;52.542;13.440;2023-04-25T15:58:33;13.10;59.40
2054;DHT22;1032;52.542;13.440;2023-04-25T16:01:00;12.90;59.70
2054;DHT22;1032;52.542;13.440;2023-04-25T16:03:29;12.80;59.80